Terminal Aerodrome Forecast
Issued by NWS

Home | Current Version | Previous Version | Text Only | Print | Product List | Glossary On
Versions: 1 2 3 4 5 6 7 8 9 10 11 12 13 14 15 16 17 18 19
000
FTUS43 KDVN 190520
TAFBRL
TAF
KBRL 190520Z 1906/2006 VRB03KT P6SM SKC
     FM190800 07003KT 5SM BR FEW250
     FM191000 09003KT 2SM BR FEW250
     FM191500 VRB05KT P6SM SCT050=

USA.gov is the U.S. government's official web portal to all federal, state and local government web resources and services.